createdAt,value
2019-01-15T00:00:46.767Z,147979.08
2019-01-15T00:01:52.812Z,148018.17
2019-01-15T00:02:58.923Z,148020.70
2019-01-15T00:04:04.550Z,148020.70
2019-01-15T00:05:10.550Z,148046.50
2019-01-15T00:06:16.902Z,148052.83
2019-01-15T00:07:22.889Z,148040.20
2019-01-15T00:08:29.288Z,148038.31
2019-01-15T00:09:35.709Z,148001.80
2019-01-15T00:10:42.022Z,148016.28
2019-01-15T00:11:48.389Z,148056.59
2019-01-15T00:12:54.772Z,148081.16
2019-01-15T00:14:01.876Z,148064.14
2019-01-15T00:15:08.222Z,148045.91
2019-01-15T00:16:14.580Z,148040.84
2019-01-15T00:17:20.892Z,148018.17
2019-01-15T00:18:27.217Z,148032.02
2019-01-15T00:19:33.567Z,148025.09
2019-01-15T00:20:40.066Z,148040.84
2019-01-15T00:21:46.453Z,148067.31
2019-01-15T00:22:52.804Z,148071.11
2019-01-15T00:23:58.812Z,148042.75
2019-01-15T00:25:04.516Z,148023.19
2019-01-15T00:26:10.876Z,148013.73
2019-01-15T00:27:17.214Z,148038.31
2019-01-15T00:28:23.243Z,148024.47
2019-01-15T00:29:29.564Z,148060.39
2019-01-15T00:30:35.945Z,148048.39
2019-01-15T00:31:41.978Z,148068.58
2019-01-15T00:32:48.348Z,148079.94
2019-01-15T00:33:54.666Z,148063.50
2019-01-15T00:35:01.726Z,148068.58
2019-01-15T00:36:08.076Z,148054.09
2019-01-15T00:37:14.401Z,148043.38
2019-01-15T00:38:20.773Z,148065.41
2019-01-15T00:39:27.178Z,148069.22
2019-01-15T00:40:33.202Z,148020.70
2019-01-15T00:41:39.640Z,148011.25
2019-01-15T00:42:45.658Z,148035.81
2019-01-15T00:43:52.130Z,148072.34
2019-01-15T00:44:58.401Z,148069.22
2019-01-15T00:46:04.750Z,148042.11
2019-01-15T00:47:11.125Z,148079.94
2019-01-15T00:48:17.436Z,148086.86
2019-01-15T00:49:23.812Z,148085.59
2019-01-15T00:50:29.781Z,148089.34
2019-01-15T00:51:36.151Z,148119.63
2019-01-15T00:52:42.203Z,148100.72
2019-01-15T00:53:48.551Z,148093.16
2019-01-15T00:54:54.849Z,148125.28
2019-01-15T00:56:01.219Z,148103.88
2019-01-15T00:57:07.606Z,148064.78
2019-01-15T00:58:14.633Z,148073.59
2019-01-15T00:59:21.303Z,148115.19
2019-01-15T01:00:27.335Z,148075.50
2019-01-15T01:01:33.709Z,148098.81
2019-01-15T01:02:39.680Z,148085.59
2019-01-15T01:03:46.054Z,148069.84
2019-01-15T01:04:52.415Z,148055.95
2019-01-15T01:05:58.923Z,148057.22
2019-01-15T01:07:04.300Z,148050.30
2019-01-15T01:08:10.330Z,148020.70
2019-01-15T01:09:16.459Z,148027.00
2019-01-15T01:10:22.060Z,148036.45
2019-01-15T01:11:28.675Z,148042.75
2019-01-15T01:12:35.046Z,148037.09
2019-01-15T01:13:41.888Z,148080.53
2019-01-15T01:14:48.300Z,148029.48
2019-01-15T01:15:54.690Z,147989.81
2019-01-15T01:17:00.671Z,148012.52
2019-01-15T01:18:06.385Z,148029.48
2019-01-15T01:19:14.595Z,148042.75
2019-01-15T01:20:20.042Z,148044.00
2019-01-15T01:21:26.443Z,148045.91
2019-01-15T01:22:32.900Z,148045.28
2019-01-15T01:23:39.291Z,148033.92
2019-01-15T01:24:45.325Z,148006.19
2019-01-15T01:25:51.680Z,147966.50
2019-01-15T01:26:57.985Z,147971.53
2019-01-15T01:28:03.817Z,147992.34
2019-01-15T01:29:10.234Z,148010.63
2019-01-15T01:30:15.796Z,147992.34
2019-01-15T01:31:22.550Z,147974.06
2019-01-15T01:32:28.897Z,147979.08
2019-01-15T01:33:35.297Z,147958.95
2019-01-15T01:34:41.691Z,147948.87
2019-01-15T01:35:48.184Z,147970.31
2019-01-15T01:36:54.524Z,147993.61
2019-01-15T01:38:00.574Z,147969.03
2019-01-15T01:39:06.010Z,147970.89
2019-01-15T01:40:12.115Z,148023.19
2019-01-15T01:41:19.070Z,148071.11
2019-01-15T01:42:29.423Z,148090.63
2019-01-15T01:43:31.874Z,148032.66
2019-01-15T01:44:38.285Z,148013.09
2019-01-15T01:45:44.703Z,148032.02
2019-01-15T01:46:51.053Z,148022.56
2019-01-15T01:47:57.753Z,147998.63
2019-01-15T01:49:03.844Z,148055.95
2019-01-15T01:50:09.566Z,148033.28
2019-01-15T01:51:16.281Z,148023.19
2019-01-15T01:52:22.643Z,147981.61
2019-01-15T01:53:29.025Z,147976.59
2019-01-15T01:54:35.000Z,147971.53
2019-01-15T01:55:41.378Z,147960.22
2019-01-15T01:56:47.443Z,147991.70
2019-01-15T01:57:53.800Z,147969.67
2019-01-15T01:59:00.203Z,147979.08
2019-01-15T02:00:05.856Z,148004.28
2019-01-15T02:01:13.000Z,148016.28
2019-01-15T02:02:20.117Z,148003.06
2019-01-15T02:03:26.500Z,148008.08
2019-01-15T02:04:32.853Z,147984.78
2019-01-15T02:05:39.314Z,147963.97
2019-01-15T02:06:45.643Z,147970.31
2019-01-15T02:07:51.665Z,148005.55
2019-01-15T02:08:57.995Z,147974.06
2019-01-15T02:10:03.710Z,148004.28
2019-01-15T02:11:10.066Z,148000.53
2019-01-15T02:12:16.458Z,147989.81
2019-01-15T02:13:22.891Z,148039.56
2019-01-15T02:14:29.265Z,148033.28
2019-01-15T02:15:35.298Z,148007.44
2019-01-15T02:16:41.738Z,147988.53
2019-01-15T02:17:47.411Z,147994.88
2019-01-15T02:18:53.757Z,147975.97
2019-01-15T02:19:59.450Z,147988.53
2019-01-15T02:21:05.494Z,147963.34
2019-01-15T02:22:12.642Z,147963.97
2019-01-15T02:23:19.513Z,148018.81
2019-01-15T02:24:25.669Z,148006.19
2019-01-15T02:25:32.082Z,148009.34
2019-01-15T02:26:38.187Z,148004.28
2019-01-15T02:27:44.280Z,148002.44
2019-01-15T02:28:50.639Z,147980.98
2019-01-15T02:29:56.963Z,147950.77
2019-01-15T02:31:03.301Z,147913.58
2019-01-15T02:32:09.635Z,147928.09
2019-01-15T02:33:15.988Z,147933.13
2019-01-15T02:34:22.024Z,147945.06
2019-01-15T02:35:28.397Z,147999.25
2019-01-15T02:36:34.805Z,148006.81
2019-01-15T02:37:40.868Z,148014.38
2019-01-15T02:38:47.372Z,148010.63
2019-01-15T02:39:53.693Z,147986.69
2019-01-15T02:40:59.696Z,147996.72
2019-01-15T02:42:05.777Z,148017.53
2019-01-15T02:43:12.487Z,148045.91
2019-01-15T02:44:18.908Z,148053.47
2019-01-15T02:45:24.945Z,148055.95
2019-01-15T02:46:31.310Z,148032.02
2019-01-15T02:47:37.284Z,148035.81
2019-01-15T02:48:43.645Z,148032.66
2019-01-15T02:49:49.698Z,148049.66
2019-01-15T02:50:56.521Z,147987.27
2019-01-15T02:52:02.545Z,147969.03
2019-01-15T02:53:08.947Z,148016.28
2019-01-15T02:54:15.406Z,148042.75
2019-01-15T02:55:21.410Z,148017.53
2019-01-15T02:56:27.755Z,148019.44
2019-01-15T02:57:34.134Z,148016.91
2019-01-15T02:58:40.600Z,148005.55
2019-01-15T02:59:46.965Z,148028.27
2019-01-15T03:00:53.276Z,148026.36
2019-01-15T03:01:59.610Z,148034.56
2019-01-15T03:03:05.649Z,148054.69
2019-01-15T03:04:12.689Z,148002.44
2019-01-15T03:05:18.837Z,148029.48
2019-01-15T03:06:25.156Z,148020.70
2019-01-15T03:07:31.108Z,148020.08
2019-01-15T03:08:37.523Z,148020.70
2019-01-15T03:09:43.954Z,148022.56
2019-01-15T03:10:50.278Z,148042.11
2019-01-15T03:11:56.685Z,148057.22
2019-01-15T03:13:02.561Z,148062.92
2019-01-15T03:14:08.644Z,148028.89
2019-01-15T03:15:14.743Z,148013.73
2019-01-15T03:16:21.061Z,148038.94
2019-01-15T03:17:27.447Z,148041.47
2019-01-15T03:18:34.059Z,148056.59
2019-01-15T03:19:40.455Z,148062.30
2019-01-15T03:20:46.880Z,148060.39
2019-01-15T03:21:53.228Z,148066.67
2019-01-15T03:22:59.602Z,148039.56
2019-01-15T03:24:05.616Z,148021.28
2019-01-15T03:25:13.231Z,148060.39
2019-01-15T03:26:20.093Z,148062.30
2019-01-15T03:27:26.473Z,148065.41
2019-01-15T03:28:32.383Z,148071.70
2019-01-15T03:29:38.790Z,148061.03
2019-01-15T03:30:45.138Z,148088.72
2019-01-15T03:31:51.493Z,148089.98
2019-01-15T03:32:57.868Z,148063.50
2019-01-15T03:34:03.871Z,148079.94
2019-01-15T03:35:09.703Z,148086.86
2019-01-15T03:36:15.992Z,148057.86
2019-01-15T03:37:22.417Z,148043.38
2019-01-15T03:38:28.439Z,148032.66
2019-01-15T03:39:34.883Z,148057.22
2019-01-15T03:40:41.393Z,148063.50
2019-01-15T03:41:47.773Z,148091.87
2019-01-15T03:42:53.806Z,148114.56
2019-01-15T03:44:00.195Z,148068.58
2019-01-15T03:45:05.980Z,148065.41
2019-01-15T03:46:12.327Z,148093.78
2019-01-15T03:47:18.818Z,148096.91
2019-01-15T03:48:25.221Z,148103.25
2019-01-15T03:49:31.596Z,148089.34
2019-01-15T03:50:37.976Z,148066.05
2019-01-15T03:51:44.328Z,148120.91
2019-01-15T03:52:50.361Z,148106.38
2019-01-15T03:53:56.741Z,148096.91
2019-01-15T03:55:03.097Z,148097.55
2019-01-15T03:56:09.173Z,148092.52
2019-01-15T03:57:15.497Z,148123.38
2019-01-15T03:58:21.827Z,148131.58
2019-01-15T03:59:28.556Z,148104.52
2019-01-15T04:00:34.932Z,148084.33
2019-01-15T04:01:41.310Z,148079.31
2019-01-15T04:02:47.099Z,148111.44
2019-01-15T04:03:53.512Z,148126.56
2019-01-15T04:04:59.698Z,148096.91
2019-01-15T04:06:05.334Z,148104.52
2019-01-15T04:07:11.441Z,148109.53
2019-01-15T04:08:17.831Z,148105.73
2019-01-15T04:09:24.183Z,148101.34
2019-01-15T04:10:30.282Z,148121.53
2019-01-15T04:11:36.600Z,148153.67
2019-01-15T04:12:42.699Z,148139.77
2019-01-15T04:13:49.060Z,148130.94
2019-01-15T04:14:55.498Z,148116.47
2019-01-15T04:16:01.920Z,148113.34
2019-01-15T04:17:08.317Z,148086.23
2019-01-15T04:18:14.670Z,148075.50
2019-01-15T04:19:21.193Z,148101.34
2019-01-15T04:20:26.885Z,148101.98
2019-01-15T04:21:33.267Z,148137.28
2019-01-15T04:22:39.705Z,148106.38
2019-01-15T04:23:46.080Z,148108.91
2019-01-15T04:24:52.507Z,148105.73
2019-01-15T04:25:58.844Z,148072.97
2019-01-15T04:27:04.516Z,148067.31
2019-01-15T04:28:11.027Z,148104.52
2019-01-15T04:29:18.105Z,148089.98
2019-01-15T04:30:23.690Z,148059.12
2019-01-15T04:31:29.681Z,148075.50
2019-01-15T04:32:36.043Z,148064.78
2019-01-15T04:33:42.426Z,148084.33
2019-01-15T04:34:49.314Z,148070.48
2019-01-15T04:35:55.621Z,148090.63
2019-01-15T04:37:01.964Z,148072.97
2019-01-15T04:38:08.327Z,148095.69
2019-01-15T04:39:14.710Z,148106.38
2019-01-15T04:40:20.400Z,148107.00
2019-01-15T04:41:26.748Z,148088.13
2019-01-15T04:42:33.144Z,148075.50
2019-01-15T04:43:39.596Z,148075.50
2019-01-15T04:44:45.970Z,148101.34
2019-01-15T04:45:52.018Z,148078.03
2019-01-15T04:46:58.433Z,148079.31
2019-01-15T04:48:04.155Z,148038.31
2019-01-15T04:49:10.497Z,148033.28
2019-01-15T04:50:17.520Z,148061.03
2019-01-15T04:51:24.338Z,148074.23
2019-01-15T04:52:30.464Z,148084.97
2019-01-15T04:53:36.831Z,148111.44
2019-01-15T04:54:43.160Z,148098.81
2019-01-15T04:55:49.527Z,148076.78
2019-01-15T04:56:55.739Z,148100.72
2019-01-15T04:58:01.467Z,148111.44
2019-01-15T04:59:07.484Z,148101.34
2019-01-15T05:00:13.106Z,148098.17
2019-01-15T05:01:19.436Z,148091.25
2019-01-15T05:02:25.869Z,148095.06
2019-01-15T05:03:31.909Z,148097.55
2019-01-15T05:04:38.325Z,148106.38
2019-01-15T05:05:44.725Z,148105.73
2019-01-15T05:06:51.037Z,148103.25
2019-01-15T05:07:57.428Z,148111.44
2019-01-15T05:09:03.233Z,148125.28
2019-01-15T05:10:09.518Z,148120.27
2019-01-15T05:11:16.015Z,148125.92
2019-01-15T05:12:22.350Z,148119.00
2019-01-15T05:13:28.806Z,148103.88
2019-01-15T05:14:35.270Z,148125.28
2019-01-15T05:15:42.409Z,148143.58
2019-01-15T05:16:48.815Z,148132.22
2019-01-15T05:17:54.764Z,148102.61
2019-01-15T05:19:01.959Z,148093.16
2019-01-15T05:20:07.820Z,148107.00
2019-01-15T05:21:14.202Z,148122.75
2019-01-15T05:22:20.599Z,148107.00
2019-01-15T05:23:26.949Z,148131.58
2019-01-15T05:24:33.305Z,148134.75
2019-01-15T05:25:39.649Z,148138.55
2019-01-15T05:26:45.997Z,148146.75
2019-01-15T05:27:52.441Z,148146.11
2019-01-15T05:28:58.782Z,148137.91
2019-01-15T05:30:04.193Z,148127.19
2019-01-15T05:31:10.567Z,148136.66
2019-01-15T05:32:17.002Z,148112.06
2019-01-15T05:33:23.386Z,148125.92
2019-01-15T05:34:29.855Z,148098.17
2019-01-15T05:35:36.267Z,148127.19
2019-01-15T05:36:42.651Z,148119.00
2019-01-15T05:37:48.284Z,148124.02
2019-01-15T05:38:54.665Z,148124.02
2019-01-15T05:40:00.956Z,148126.56
2019-01-15T05:41:07.323Z,148144.20
2019-01-15T05:42:13.649Z,148144.84
2019-01-15T05:43:20.006Z,148142.94
2019-01-15T05:44:26.360Z,148135.37
2019-01-15T05:45:32.104Z,148125.28
2019-01-15T05:46:38.930Z,148127.19
2019-01-15T05:47:45.057Z,148119.00
2019-01-15T05:48:51.434Z,148142.31
2019-01-15T05:49:57.816Z,148117.73
2019-01-15T05:51:04.706Z,148102.61
2019-01-15T05:52:11.101Z,148116.47
2019-01-15T05:53:17.441Z,148118.36
2019-01-15T05:54:24.979Z,148110.81
2019-01-15T05:55:33.447Z,148127.81
2019-01-15T05:56:40.633Z,148149.22
2019-01-15T05:57:47.035Z,148139.14
2019-01-15T05:58:53.471Z,148130.94
2019-01-15T06:00:00.617Z,148161.23
2019-01-15T06:01:07.331Z,148161.23
2019-01-15T06:02:14.143Z,148170.06
2019-01-15T06:03:20.475Z,148135.37
2019-01-15T06:04:26.828Z,148144.20
2019-01-15T06:05:32.858Z,148153.67
2019-01-15T06:06:39.319Z,148126.56
2019-01-15T06:07:45.070Z,148110.17
2019-01-15T06:08:51.394Z,148137.91
2019-01-15T06:09:57.776Z,148163.13
2019-01-15T06:11:03.791Z,148153.67
2019-01-15T06:12:10.142Z,148167.52
2019-01-15T06:13:16.517Z,148147.38
2019-01-15T06:14:23.562Z,148166.88
2019-01-15T06:15:30.641Z,148176.98
2019-01-15T06:16:37.978Z,148168.78
2019-01-15T06:17:43.616Z,148173.17
2019-01-15T06:18:49.967Z,148161.86
2019-01-15T06:19:56.868Z,148171.95
2019-01-15T06:21:03.223Z,148177.63
2019-01-15T06:22:09.593Z,148176.34
2019-01-15T06:23:15.928Z,148162.50
2019-01-15T06:24:22.293Z,148170.06
2019-01-15T06:25:28.722Z,148178.25
2019-01-15T06:26:35.097Z,148189.61
2019-01-15T06:27:40.879Z,148182.00
2019-01-15T06:28:47.003Z,148151.77
2019-01-15T06:29:53.470Z,148141.67
2019-01-15T06:30:59.590Z,148127.19
2019-01-15T06:32:05.936Z,148165.63
2019-01-15T06:33:12.262Z,148165.63
2019-01-15T06:34:18.620Z,148178.25
2019-01-15T06:35:24.953Z,148168.16
2019-01-15T06:36:31.302Z,148171.33
2019-01-15T06:37:37.274Z,148173.81
2019-01-15T06:38:43.657Z,148163.13
2019-01-15T06:39:50.102Z,148195.27
2019-01-15T06:40:55.779Z,148161.23
2019-01-15T06:42:01.809Z,148178.25
2019-01-15T06:43:08.622Z,148183.91
2019-01-15T06:44:14.969Z,148183.91
2019-01-15T06:45:35.549Z,148183.28
2019-01-15T06:46:42.916Z,148181.38
2019-01-15T06:47:48.579Z,148182.64
2019-01-15T06:48:54.905Z,148184.53
2019-01-15T06:50:01.270Z,148191.47
2019-01-15T06:51:07.316Z,148188.98
2019-01-15T06:52:13.645Z,148182.64
2019-01-15T06:53:19.991Z,148190.84
2019-01-15T06:54:26.355Z,148203.47
2019-01-15T06:55:32.345Z,148226.14
2019-01-15T06:56:38.319Z,148232.44
2019-01-15T06:57:44.350Z,148230.59
2019-01-15T06:58:50.721Z,148241.91
2019-01-15T06:59:57.707Z,148217.31
2019-01-15T07:01:03.890Z,148232.44
2019-01-15T07:02:10.293Z,148203.47
2019-01-15T07:03:16.269Z,148175.72
2019-01-15T07:04:22.625Z,148202.83
2019-01-15T07:05:28.699Z,148200.30
2019-01-15T07:06:35.496Z,148199.66
2019-01-15T07:07:41.472Z,148190.84
2019-01-15T07:08:47.790Z,148204.73
2019-01-15T07:09:54.150Z,148186.44
2019-01-15T07:11:00.453Z,148171.33
2019-01-15T07:12:06.882Z,148201.56
2019-01-15T07:13:13.349Z,148170.69
2019-01-15T07:14:19.701Z,148178.88
2019-01-15T07:15:26.046Z,148181.38
2019-01-15T07:16:32.145Z,148190.20
2019-01-15T07:17:38.131Z,148200.30
2019-01-15T07:18:44.426Z,148226.14
2019-01-15T07:19:50.770Z,148225.52
2019-01-15T07:20:58.015Z,148204.73
2019-01-15T07:22:03.911Z,148197.17
2019-01-15T07:23:10.237Z,148173.17
2019-01-15T07:24:16.373Z,148183.28
2019-01-15T07:25:22.048Z,148206.59
2019-01-15T07:26:28.085Z,148199.03
2019-01-15T07:27:34.606Z,148204.73
2019-01-15T07:28:40.633Z,148190.20
2019-01-15T07:29:46.624Z,148210.39
2019-01-15T07:30:52.277Z,148229.95
2019-01-15T07:31:58.677Z,148248.25
2019-01-15T07:33:04.338Z,148283.52
2019-01-15T07:34:10.701Z,148291.72
2019-01-15T07:35:17.103Z,148260.83
2019-01-15T07:36:23.414Z,148267.75
2019-01-15T07:37:29.744Z,148265.86
2019-01-15T07:38:36.083Z,148231.86
2019-01-15T07:39:42.472Z,148229.95
2019-01-15T07:40:48.797Z,148229.31
2019-01-15T07:41:55.738Z,148245.08
2019-01-15T07:43:02.885Z,148256.44
2019-01-15T07:44:09.320Z,148262.73
2019-01-15T07:45:15.416Z,148252.00
2019-01-15T07:46:21.862Z,148248.25
2019-01-15T07:47:27.866Z,148258.94
2019-01-15T07:48:34.199Z,148262.73
2019-01-15T07:49:40.574Z,148270.30
2019-01-15T07:50:46.584Z,148269.66
2019-01-15T07:51:52.900Z,148250.73
2019-01-15T07:52:58.850Z,148267.75
2019-01-15T07:54:04.531Z,148275.33
2019-01-15T07:55:10.195Z,148264.64
2019-01-15T07:56:16.587Z,148286.69
2019-01-15T07:57:22.951Z,148243.17
2019-01-15T07:58:29.278Z,148260.20
2019-01-15T07:59:35.705Z,148246.97
2019-01-15T08:00:41.748Z,148252.64
2019-01-15T08:01:47.864Z,148223.61
2019-01-15T08:02:53.511Z,148236.25
2019-01-15T08:04:00.677Z,148273.47
2019-01-15T08:05:06.897Z,148257.08
2019-01-15T08:06:13.242Z,148245.08
2019-01-15T08:07:19.213Z,148223.03
2019-01-15T08:08:25.594Z,148241.27
2019-01-15T08:09:32.781Z,148249.47
2019-01-15T08:10:39.210Z,148258.94
2019-01-15T08:11:45.552Z,148253.91
2019-01-15T08:12:51.567Z,148262.09
2019-01-15T08:13:58.742Z,148267.75
2019-01-15T08:15:04.441Z,148241.27
2019-01-15T08:16:10.470Z,148216.69
2019-01-15T08:17:16.780Z,148253.28
2019-01-15T08:18:23.150Z,148236.25
2019-01-15T08:19:29.556Z,148200.30
2019-01-15T08:20:35.561Z,148195.91
2019-01-15T08:21:41.878Z,148218.59
2019-01-15T08:22:47.918Z,148252.00
2019-01-15T08:23:54.231Z,148251.37
2019-01-15T08:25:02.206Z,148236.25
2019-01-15T08:26:08.823Z,148240.05
2019-01-15T08:27:15.175Z,148236.25
2019-01-15T08:28:21.496Z,148234.97
2019-01-15T08:29:27.820Z,148236.88
2019-01-15T08:30:34.219Z,148211.03
2019-01-15T08:31:40.561Z,148219.22
2019-01-15T08:32:46.508Z,148206.00
2019-01-15T08:33:52.889Z,148210.39
2019-01-15T08:34:59.780Z,148202.20
2019-01-15T08:36:05.433Z,148214.83
2019-01-15T08:37:11.739Z,148220.48
2019-01-15T08:38:18.094Z,148224.25
2019-01-15T08:39:24.966Z,148220.48
2019-01-15T08:40:31.356Z,148218.59
2019-01-15T08:41:37.740Z,148229.95
2019-01-15T08:42:43.411Z,148204.09
2019-01-15T08:43:49.766Z,148192.73
2019-01-15T08:44:55.948Z,148215.42
2019-01-15T08:46:02.484Z,148217.31
2019-01-15T08:47:08.816Z,148216.05
2019-01-15T08:48:15.003Z,148226.78
2019-01-15T08:49:21.380Z,148235.61
2019-01-15T08:50:31.240Z,148228.05
2019-01-15T08:51:37.354Z,148239.42
2019-01-15T08:52:43.725Z,148234.97
2019-01-15T08:53:49.789Z,148216.69
2019-01-15T08:54:56.161Z,148209.13
2019-01-15T08:56:02.273Z,148197.17
2019-01-15T08:57:08.669Z,148211.66
2019-01-15T08:58:15.984Z,148212.30
2019-01-15T08:59:22.308Z,148226.14
2019-01-15T09:00:28.684Z,148236.88
2019-01-15T09:01:34.996Z,148254.55
2019-01-15T09:02:41.966Z,148261.47
2019-01-15T09:03:48.795Z,148219.22
2019-01-15T09:04:55.144Z,148193.38
2019-01-15T09:06:01.488Z,148225.52
2019-01-15T09:07:07.840Z,148209.75
2019-01-15T09:08:14.208Z,148192.73
2019-01-15T09:09:20.722Z,148211.03
2019-01-15T09:10:26.723Z,148172.59
2019-01-15T09:11:33.586Z,148142.94
2019-01-15T09:12:39.613Z,148163.77
2019-01-15T09:13:45.914Z,148156.78
2019-01-15T09:14:52.031Z,148177.63
2019-01-15T09:15:58.371Z,148183.91
2019-01-15T09:17:10.947Z,148200.30
2019-01-15T09:18:11.686Z,148202.20
2019-01-15T09:19:17.701Z,148206.00
2019-01-15T09:20:23.682Z,148186.44
2019-01-15T09:21:30.045Z,148193.38
2019-01-15T09:22:36.368Z,148164.98
2019-01-15T09:23:42.679Z,148146.75
2019-01-15T09:24:49.021Z,148176.34
2019-01-15T09:25:54.711Z,148206.59
2019-01-15T09:27:01.106Z,148230.59
2019-01-15T09:28:07.491Z,148236.88
2019-01-15T09:29:13.473Z,148224.87
2019-01-15T09:30:19.591Z,148214.83
2019-01-15T09:31:25.897Z,148233.08
2019-01-15T09:32:31.990Z,148231.86
2019-01-15T09:33:37.958Z,148234.97
2019-01-15T09:34:44.422Z,148224.87
2019-01-15T09:35:50.428Z,148247.61
2019-01-15T09:36:56.835Z,148234.34
2019-01-15T09:38:02.626Z,148233.72
2019-01-15T09:39:08.377Z,148229.31
2019-01-15T09:40:15.284Z,148215.42
2019-01-15T09:41:21.713Z,148228.69
2019-01-15T09:42:28.100Z,148230.59
2019-01-15T09:43:35.213Z,148238.16
2019-01-15T09:44:41.421Z,148238.78
2019-01-15T09:45:47.475Z,148245.70
2019-01-15T09:46:53.505Z,148251.37
2019-01-15T09:47:59.396Z,148241.27
2019-01-15T09:49:06.673Z,148243.81
2019-01-15T09:50:12.798Z,148273.47
2019-01-15T09:51:19.154Z,148257.66
2019-01-15T09:52:25.501Z,148304.34
2019-01-15T09:53:31.860Z,148308.11
2019-01-15T09:54:37.826Z,148325.14
2019-01-15T09:55:44.250Z,148305.63
2019-01-15T09:56:50.568Z,148299.33
2019-01-15T09:57:56.957Z,148310.66
2019-01-15T09:59:03.297Z,148315.09
2019-01-15T10:00:10.764Z,148319.48
2019-01-15T10:01:17.295Z,148332.13
2019-01-15T10:02:24.114Z,148339.69
2019-01-15T10:03:29.730Z,148361.73
2019-01-15T10:04:36.105Z,148336.50
2019-01-15T10:05:42.466Z,148352.91
2019-01-15T10:06:48.992Z,148333.34
2019-01-15T10:07:55.342Z,148330.84
2019-01-15T10:09:01.368Z,148304.98
2019-01-15T10:10:08.750Z,148333.34
2019-01-15T10:11:15.063Z,148328.31
2019-01-15T10:12:21.400Z,148327.05
2019-01-15T10:13:27.726Z,148327.69
2019-01-15T10:14:41.029Z,148354.81
2019-01-15T10:15:40.434Z,148359.84
2019-01-15T10:16:46.826Z,148357.34
2019-01-15T10:17:52.865Z,148374.38
2019-01-15T10:18:59.211Z,148380.67
2019-01-15T10:20:04.953Z,148388.88
2019-01-15T10:21:11.312Z,148383.84
2019-01-15T10:22:17.151Z,148352.91
2019-01-15T10:23:23.128Z,148386.97
2019-01-15T10:24:29.355Z,148397.70
2019-01-15T10:25:35.433Z,148397.70
2019-01-15T10:26:41.763Z,148418.50
2019-01-15T10:27:47.885Z,148432.41
2019-01-15T10:28:54.190Z,148434.31
2019-01-15T10:30:00.289Z,148442.53
2019-01-15T10:31:09.624Z,148433.69
2019-01-15T10:32:27.233Z,148429.88
2019-01-15T10:33:33.022Z,148425.48
2019-01-15T10:34:38.723Z,148428.61
2019-01-15T10:35:51.704Z,148450.72
2019-01-15T10:36:56.825Z,148449.45
2019-01-15T10:38:03.437Z,148461.41
2019-01-15T10:39:08.803Z,148453.22
2019-01-15T10:40:15.137Z,148467.13
2019-01-15T10:41:21.486Z,148468.34
2019-01-15T10:42:27.789Z,148456.39
2019-01-15T10:43:33.449Z,148480.98
2019-01-15T10:44:39.481Z,148503.69
2019-01-15T10:45:45.936Z,148523.91
2019-01-15T10:46:52.353Z,148523.91
2019-01-15T10:47:58.704Z,148520.09
2019-01-15T10:49:04.403Z,148503.69
2019-01-15T10:50:10.090Z,148510.05
2019-01-15T10:51:16.439Z,148502.42
2019-01-15T10:52:22.842Z,148480.36
2019-01-15T10:53:28.914Z,148487.28
2019-01-15T10:54:35.379Z,148469.62
2019-01-15T10:55:41.758Z,148496.13
2019-01-15T10:56:48.596Z,148519.47
2019-01-15T10:57:55.011Z,148530.84
2019-01-15T10:59:01.361Z,148532.11
2019-01-15T11:00:07.084Z,148538.41
2019-01-15T11:01:13.428Z,148533.38
2019-01-15T11:02:19.822Z,148523.91
2019-01-15T11:03:25.811Z,148517.61
2019-01-15T11:04:32.193Z,148486.02
2019-01-15T11:05:38.151Z,148480.98
2019-01-15T11:06:44.520Z,148476.59
2019-01-15T11:07:50.913Z,148489.83
2019-01-15T11:08:57.261Z,148508.78
2019-01-15T11:10:03.026Z,148498.66
2019-01-15T11:11:09.394Z,148502.42
2019-01-15T11:12:15.828Z,148501.84
2019-01-15T11:13:22.419Z,148495.48
2019-01-15T11:14:28.593Z,148486.02
2019-01-15T11:15:34.645Z,148498.03
2019-01-15T11:16:40.964Z,148499.30
2019-01-15T11:17:47.330Z,148518.25
2019-01-15T11:18:53.359Z,148551.69
2019-01-15T11:19:59.787Z,148545.98
2019-01-15T11:21:06.911Z,148533.38
2019-01-15T11:22:12.884Z,148520.09
2019-01-15T11:23:19.184Z,148504.97
2019-01-15T11:24:25.555Z,148505.59
2019-01-15T11:25:32.086Z,148515.06
2019-01-15T11:26:38.446Z,148537.14
2019-01-15T11:27:44.552Z,148539.69
2019-01-15T11:28:50.883Z,148552.33
2019-01-15T11:29:57.230Z,148571.86
2019-01-15T11:31:03.261Z,148544.72
2019-01-15T11:32:10.777Z,148519.47
2019-01-15T11:33:16.005Z,148508.14
2019-01-15T11:34:21.989Z,148482.89
2019-01-15T11:35:28.920Z,148491.09
2019-01-15T11:36:35.684Z,148501.84
2019-01-15T11:37:41.351Z,148527.67
2019-01-15T11:38:47.695Z,148550.42
2019-01-15T11:39:54.307Z,148569.97
2019-01-15T11:41:00.351Z,148563.03
2019-01-15T11:42:06.713Z,148563.66
2019-01-15T11:43:13.091Z,148568.09
2019-01-15T11:44:19.213Z,148575.67
2019-01-15T11:45:25.562Z,148566.83
2019-01-15T11:46:31.997Z,148547.88
2019-01-15T11:47:38.027Z,148526.45
2019-01-15T11:48:44.398Z,148513.80
2019-01-15T11:49:50.734Z,148547.25
2019-01-15T11:50:57.096Z,148553.55
2019-01-15T11:52:03.451Z,148541.59
2019-01-15T11:53:09.459Z,148551.06
2019-01-15T11:54:15.830Z,148585.78
2019-01-15T11:55:22.175Z,148599.66
2019-01-15T11:56:28.524Z,148568.73
2019-01-15T11:57:34.934Z,148580.70
2019-01-15T11:58:41.067Z,148559.91
2019-01-15T11:59:47.382Z,148570.59
2019-01-15T12:00:53.497Z,148578.80
2019-01-15T12:01:59.624Z,148582.61
2019-01-15T12:04:44.020Z,148597.11
2019-01-15T12:05:55.818Z,148586.42
2019-01-15T12:07:07.537Z,148610.41
2019-01-15T12:08:18.764Z,148597.75
2019-01-15T12:09:27.987Z,148626.81
2019-01-15T12:10:39.433Z,148648.25
2019-01-15T12:11:56.229Z,148653.34
2019-01-15T12:13:04.805Z,148655.83
2019-01-15T12:14:16.569Z,148653.34
2019-01-15T12:15:22.682Z,148632.47
2019-01-15T12:16:29.348Z,148640.69
2019-01-15T12:17:37.067Z,148642.59
2019-01-15T12:18:48.619Z,148645.13
2019-01-15T12:19:56.395Z,148674.78
2019-01-15T12:21:05.544Z,148644.50
2019-01-15T12:22:17.097Z,148646.98
2019-01-15T12:23:33.754Z,148650.16
2019-01-15T12:24:40.296Z,148640.05
2019-01-15T12:38:17.826Z,148669.11
2019-01-15T12:39:51.018Z,148699.41
2019-01-15T12:41:03.478Z,148681.72
2019-01-15T12:42:18.191Z,148696.28
2019-01-15T12:44:58.283Z,148680.45
2019-01-15T12:46:06.488Z,148703.86
2019-01-15T13:10:06.608Z,148696.28
2019-01-15T13:11:16.364Z,148714.56
2019-01-15T13:12:28.014Z,148705.70
2019-01-15T13:13:46.890Z,148692.47
2019-01-15T13:15:08.918Z,148717.09
2019-01-15T13:16:19.894Z,148727.20
2019-01-15T13:19:20.056Z,148742.36
2019-01-15T13:20:57.458Z,148740.45